Terminal Aerodrome Forecast
Issued by NWS

Current Version | Previous Version | Text Only | Print | Product List | Glossary On
Versions: 1 2 3 4 5 6 7 8 9 10 11 12
000
FTUS42 KGSP 241735
TAFAND
TAF
KAND 241735Z 2418/2518 14007KT P6SM SCT050 BKN250
     FM250300 10005KT P6SM SCT150
     FM250700 10004KT P6SM BKN023
     FM250900 08004KT P6SM BKN015
     FM251300 10005KT P6SM BKN008
     FM251500 13006KT P6SM BKN016=

USA.gov is the U.S. government's official web portal to all federal, state and local government web resources and services.